createdAt,value
2016-08-07T00:00:27.729Z,54.40
2016-08-07T00:01:25.193Z,54.50
2016-08-07T00:02:21.483Z,54.30
2016-08-07T00:03:22.358Z,54.40
2016-08-07T00:04:22.016Z,54.50
2016-08-07T00:05:27.344Z,54.40
2016-08-07T00:06:13.787Z,54.40
2016-08-07T00:07:22.855Z,54.50
2016-08-07T00:08:17.137Z,54.40
2016-08-07T00:09:13.883Z,54.50
2016-08-07T00:10:17.386Z,54.50
2016-08-07T00:11:28.271Z,54.40
2016-08-07T00:12:14.040Z,54.50
2016-08-07T00:13:26.403Z,54.50
2016-08-07T00:14:22.827Z,54.50
2016-08-07T00:15:25.870Z,54.50
2016-08-07T00:16:19.943Z,54.50
2016-08-07T00:17:23.882Z,54.50
2016-08-07T00:18:15.515Z,54.40
2016-08-07T00:19:12.342Z,54.50
2016-08-07T00:20:23.160Z,54.50
2016-08-07T00:21:18.985Z,54.50
2016-08-07T00:22:33.131Z,54.50
2016-08-07T00:23:24.484Z,54.50
2016-08-07T00:24:26.222Z,54.50
2016-08-07T00:25:26.529Z,54.60
2016-08-07T00:26:29.383Z,54.60
2016-08-07T00:27:28.793Z,54.60
2016-08-07T00:28:15.234Z,54.60
2016-08-07T00:29:14.080Z,is
2016-08-07T00:30:21.445Z,54.50
2016-08-07T00:31:12.879Z,54.60
2016-08-07T00:32:32.378Z,54.50
2016-08-07T00:33:26.669Z,54.60
2016-08-07T00:34:29.322Z,54.60
2016-08-07T00:35:15.954Z,54.70
2016-08-07T00:36:23.575Z,54.60
2016-08-07T00:37:27.650Z,54.60
2016-08-07T00:38:28.661Z,54.60
2016-08-07T00:39:28.389Z,54.60
2016-08-07T00:40:27.832Z,54.70
2016-08-07T00:41:32.261Z,54.60
2016-08-07T00:42:29.357Z,54.60
2016-08-07T00:43:15.520Z,54.70
2016-08-07T00:44:21.137Z,54.60
2016-08-07T00:45:22.767Z,54.60
2016-08-07T00:46:27.960Z,54.60
2016-08-07T00:47:25.173Z,54.60
2016-08-07T00:48:24.543Z,53.70
2016-08-07T00:49:22.162Z,54.60
2016-08-07T00:50:22.453Z,54.60
2016-08-07T00:51:21.033Z,54.70
2016-08-07T00:52:26.662Z,54.70
2016-08-07T00:53:28.624Z,54.70
2016-08-07T00:54:22.519Z,54.80
2016-08-07T00:55:22.786Z,54.70
2016-08-07T00:56:20.575Z,54.70
2016-08-07T00:57:17.261Z,54.60
2016-08-07T00:58:26.312Z,54.70
2016-08-07T00:59:22.391Z,54.60
2016-08-07T01:00:25.854Z,54.80
2016-08-07T01:01:30.032Z,54.70
2016-08-07T01:02:27.287Z,is
2016-08-07T01:03:22.115Z,54.70
2016-08-07T01:04:20.981Z,54.70
2016-08-07T01:05:17.453Z,54.70
2016-08-07T01:06:16.496Z,54.80
2016-08-07T01:07:33.130Z,54.70
2016-08-07T01:08:26.605Z,54.80
2016-08-07T01:09:14.966Z,54.80
2016-08-07T01:10:15.006Z,54.70
2016-08-07T01:11:19.451Z,54.80
2016-08-07T01:12:13.077Z,54.90
2016-08-07T01:13:29.127Z,54.80
2016-08-07T01:14:29.878Z,54.90
2016-08-07T01:15:27.734Z,54.80
2016-08-07T01:16:22.159Z,54.80
2016-08-07T01:17:22.526Z,54.80
2016-08-07T01:18:20.735Z,54.80
2016-08-07T01:19:21.958Z,54.80
2016-08-07T01:20:28.006Z,54.80
2016-08-07T01:21:28.408Z,54.80
2016-08-07T01:22:12.578Z,is
2016-08-07T01:23:28.634Z,54.90
2016-08-07T01:24:19.406Z,54.80
2016-08-07T01:25:30.734Z,55.00
2016-08-07T01:26:34.737Z,54.90
2016-08-07T01:27:25.733Z,54.80
2016-08-07T01:28:13.603Z,54.90
2016-08-07T01:29:25.624Z,54.90
2016-08-07T01:30:21.332Z,54.80
2016-08-07T01:31:12.813Z,54.90
2016-08-07T01:32:17.457Z,is
2016-08-07T01:33:22.577Z,54.90
2016-08-07T01:34:27.751Z,54.80
2016-08-07T01:35:13.142Z,54.80
2016-08-07T01:37:26.408Z,54.80
2016-08-07T01:38:28.121Z,54.80
2016-08-07T01:39:31.806Z,54.90
2016-08-07T01:40:28.260Z,54.90
2016-08-07T01:41:15.349Z,55.00
2016-08-07T01:42:21.757Z,54.90
2016-08-07T01:43:29.706Z,54.90
2016-08-07T01:44:30.233Z,54.80
2016-08-07T01:45:22.754Z,55.00
2016-08-07T01:46:24.011Z,54.90
2016-08-07T01:47:20.282Z,55.10
2016-08-07T01:48:28.450Z,54.90
2016-08-07T01:49:30.454Z,54.90
2016-08-07T01:50:12.620Z,55.50
2016-08-07T01:51:32.919Z,55.00
2016-08-07T01:52:27.577Z,54.80
2016-08-07T01:53:24.851Z,55.00
2016-08-07T01:54:30.129Z,55.00
2016-08-07T01:55:26.799Z,55.00
2016-08-07T01:56:21.478Z,54.90
2016-08-07T01:57:17.088Z,55.00
2016-08-07T01:58:27.873Z,54.90
2016-08-07T01:59:22.242Z,55.00
2016-08-07T02:00:20.935Z,55.00
2016-08-07T02:01:22.214Z,55.00
2016-08-07T02:02:27.501Z,54.90
2016-08-07T02:03:24.788Z,55.10
2016-08-07T02:04:22.451Z,55.00
2016-08-07T02:05:13.476Z,55.00
2016-08-07T02:07:23.094Z,55.00
2016-08-07T02:08:26.724Z,55.00
2016-08-07T02:09:25.805Z,is
2016-08-07T02:10:28.405Z,55.00
2016-08-07T02:11:27.377Z,55.00
2016-08-07T02:12:28.217Z,55.00
2016-08-07T02:13:22.503Z,55.00
2016-08-07T02:14:27.322Z,55.00
2016-08-07T02:15:18.851Z,54.90
2016-08-07T02:16:22.156Z,55.10
2016-08-07T02:17:16.684Z,is
2016-08-07T02:18:23.539Z,55.00
2016-08-07T02:19:28.153Z,55.00
2016-08-07T02:20:21.017Z,55.00
2016-08-07T02:22:22.682Z,55.00
2016-08-07T02:23:26.507Z,55.00
2016-08-07T02:24:20.331Z,55.00
2016-08-07T02:25:28.156Z,55.10
2016-08-07T02:26:28.273Z,55.00
2016-08-07T02:27:32.127Z,54.90
2016-08-07T02:28:20.618Z,55.10
2016-08-07T02:29:16.314Z,55.00
2016-08-07T02:30:26.155Z,55.00
2016-08-07T02:31:22.377Z,55.10
2016-08-07T02:32:28.071Z,55.00
2016-08-07T02:33:26.598Z,55.00
2016-08-07T02:34:24.169Z,55.00
2016-08-07T02:35:13.993Z,55.00
2016-08-07T02:36:16.940Z,55.00
2016-08-07T02:37:27.294Z,54.50
2016-08-07T02:38:29.876Z,54.90
2016-08-07T02:39:27.350Z,55.10
2016-08-07T02:40:28.055Z,55.10
2016-08-07T02:41:23.506Z,55.10
2016-08-07T02:42:21.123Z,55.00
2016-08-07T02:43:27.927Z,55.20
2016-08-07T02:44:26.301Z,55.10
2016-08-07T02:45:23.696Z,55.10
2016-08-07T02:46:34.425Z,55.10
2016-08-07T02:47:31.490Z,55.20
2016-08-07T02:48:13.544Z,is
2016-08-07T02:49:20.823Z,55.00
2016-08-07T02:50:19.863Z,55.00
2016-08-07T02:51:32.861Z,54.80
2016-08-07T02:52:27.069Z,55.00
2016-08-07T02:53:16.060Z,55.00
2016-08-07T02:54:27.035Z,55.00
2016-08-07T02:55:26.983Z,55.00
2016-08-07T02:56:21.998Z,55.00
2016-08-07T02:57:27.417Z,55.00
2016-08-07T02:58:28.340Z,55.00
2016-08-07T02:59:27.418Z,55.00
2016-08-07T03:00:22.737Z,54.90
2016-08-07T03:01:13.996Z,55.00
2016-08-07T03:02:27.216Z,55.00
2016-08-07T03:03:24.853Z,54.80
2016-08-07T03:04:17.284Z,54.80
2016-08-07T03:05:24.597Z,54.90
2016-08-07T03:07:34.035Z,54.80
2016-08-07T03:08:20.255Z,54.80
2016-08-07T03:09:39.013Z,54.90
2016-08-07T03:10:28.417Z,54.80
2016-08-07T03:11:31.814Z,54.80
2016-08-07T03:12:21.193Z,54.80
2016-08-07T03:13:27.916Z,54.80
2016-08-07T03:14:27.779Z,54.90
2016-08-07T03:15:23.295Z,54.80
2016-08-07T03:16:31.932Z,54.80
2016-08-07T03:17:27.264Z,54.90
2016-08-07T03:18:28.072Z,54.80
2016-08-07T03:19:22.934Z,54.80
2016-08-07T03:20:29.002Z,54.80
2016-08-07T03:21:12.843Z,is
2016-08-07T03:22:19.480Z,is
2016-08-07T03:23:27.366Z,54.90
2016-08-07T03:24:33.632Z,54.70
2016-08-07T03:25:29.060Z,54.70
2016-08-07T03:26:27.021Z,54.80
2016-08-07T03:27:20.243Z,is
2016-08-07T03:28:21.768Z,is
2016-08-07T03:29:14.853Z,54.60
2016-08-07T03:30:26.700Z,54.70
2016-08-07T03:31:23.707Z,54.70
2016-08-07T03:32:13.479Z,54.60
2016-08-07T03:33:17.886Z,54.70
2016-08-07T03:34:24.401Z,is
2016-08-07T03:35:16.961Z,54.60
2016-08-07T03:36:20.570Z,54.70
2016-08-07T03:37:20.977Z,54.60
2016-08-07T03:38:27.523Z,54.70
2016-08-07T03:39:20.827Z,54.60
2016-08-07T03:40:38.058Z,54.60
2016-08-07T03:41:27.823Z,54.70
2016-08-07T03:42:28.589Z,54.60
2016-08-07T03:43:28.534Z,54.70
2016-08-07T03:44:28.838Z,54.60
2016-08-07T03:45:26.838Z,is
2016-08-07T03:46:23.218Z,54.50
2016-08-07T03:47:12.967Z,is
2016-08-07T03:48:25.443Z,54.50
2016-08-07T03:49:29.064Z,54.50
2016-08-07T03:50:16.801Z,54.60
2016-08-07T03:51:19.104Z,54.60
2016-08-07T03:52:27.774Z,54.50
2016-08-07T03:53:29.426Z,55.00
2016-08-07T03:54:12.372Z,54.50
2016-08-07T03:55:23.296Z,54.50
2016-08-07T03:56:28.126Z,54.90
2016-08-07T03:57:26.206Z,54.50
2016-08-07T03:58:28.919Z,54.50
2016-08-07T03:59:29.700Z,54.50
2016-08-07T04:00:27.142Z,54.40
2016-08-07T04:01:14.000Z,54.50
2016-08-07T04:02:14.790Z,53.60
2016-08-07T04:03:27.317Z,54.40
2016-08-07T04:04:29.654Z,54.40
2016-08-07T04:05:28.488Z,54.40
2016-08-07T04:06:27.494Z,54.50
2016-08-07T04:07:26.143Z,54.40
2016-08-07T04:08:27.385Z,54.40
2016-08-07T04:09:33.230Z,54.30
2016-08-07T04:10:23.101Z,54.50
2016-08-07T04:11:22.837Z,54.50
2016-08-07T04:12:15.466Z,54.40
2016-08-07T04:13:31.239Z,54.50
2016-08-07T04:14:11.833Z,is
2016-08-07T04:15:28.534Z,54.50
2016-08-07T04:16:30.251Z,54.30
2016-08-07T04:17:27.645Z,54.40
2016-08-07T04:18:24.976Z,54.40
2016-08-07T04:19:26.570Z,54.40
2016-08-07T04:20:28.984Z,54.30
2016-08-07T04:21:22.630Z,54.20
2016-08-07T04:22:18.422Z,54.30
2016-08-07T04:23:27.667Z,54.20
2016-08-07T04:24:22.374Z,54.20
2016-08-07T04:25:25.260Z,54.30
2016-08-07T04:26:21.707Z,54.30
2016-08-07T04:27:27.250Z,54.20
2016-08-07T04:28:20.476Z,54.30
2016-08-07T04:29:28.034Z,54.20
2016-08-07T04:30:25.210Z,54.10
2016-08-07T04:31:29.054Z,54.20
2016-08-07T04:32:27.510Z,54.10
2016-08-07T04:33:27.854Z,54.20
2016-08-07T04:34:29.095Z,54.10
2016-08-07T04:35:19.807Z,54.20
2016-08-07T04:36:33.676Z,54.10
2016-08-07T04:37:13.761Z,54.10
2016-08-07T04:38:29.225Z,54.20
2016-08-07T04:39:28.122Z,54.10
2016-08-07T04:40:32.245Z,54.10
2016-08-07T04:41:20.776Z,is
2016-08-07T04:42:14.986Z,54.00
2016-08-07T04:43:14.075Z,54.00
2016-08-07T04:44:12.226Z,54.00
2016-08-07T04:45:22.981Z,54.00
2016-08-07T04:46:26.840Z,54.10
2016-08-07T04:47:14.257Z,is
2016-08-07T04:48:40.307Z,54.00
2016-08-07T04:49:20.510Z,54.10
2016-08-07T04:50:22.625Z,54.00
2016-08-07T04:51:21.065Z,54.00
2016-08-07T04:52:20.651Z,54.00
2016-08-07T04:53:24.100Z,54.00
2016-08-07T04:54:13.831Z,54.00
2016-08-07T04:55:25.916Z,54.00
2016-08-07T04:56:33.979Z,54.00
2016-08-07T04:57:16.278Z,54.00
2016-08-07T04:58:18.220Z,53.90
2016-08-07T04:59:31.712Z,54.00
2016-08-07T05:00:28.359Z,53.90
2016-08-07T05:01:31.090Z,54.00
2016-08-07T05:02:22.214Z,54.00
2016-08-07T05:03:19.085Z,is
2016-08-07T05:04:34.894Z,54.00
2016-08-07T05:05:28.768Z,54.00
2016-08-07T05:06:13.357Z,is
2016-08-07T05:07:30.380Z,54.00
2016-08-07T05:08:13.109Z,53.90
2016-08-07T05:09:26.400Z,53.90
2016-08-07T05:10:24.843Z,54.00
2016-08-07T05:11:19.515Z,53.90
2016-08-07T05:12:27.518Z,53.90
2016-08-07T05:13:28.437Z,53.90
2016-08-07T05:14:31.006Z,53.90
2016-08-07T05:15:27.337Z,53.90
2016-08-07T05:16:21.260Z,is
2016-08-07T05:17:26.705Z,53.90
2016-08-07T05:18:23.307Z,53.90
2016-08-07T05:19:28.396Z,53.90
2016-08-07T05:20:27.559Z,53.90
2016-08-07T05:21:14.338Z,54.10
2016-08-07T05:22:27.610Z,53.90
2016-08-07T05:23:28.373Z,53.90
2016-08-07T05:24:32.672Z,54.00
2016-08-07T05:25:25.639Z,53.90
2016-08-07T05:26:28.627Z,53.90
2016-08-07T05:27:16.411Z,54.00
2016-08-07T05:28:14.015Z,53.90
2016-08-07T05:29:30.834Z,54.00
2016-08-07T05:30:22.267Z,53.90
2016-08-07T05:31:22.261Z,54.00
2016-08-07T05:32:25.503Z,53.90
2016-08-07T05:33:27.884Z,53.90
2016-08-07T05:34:29.223Z,53.90
2016-08-07T05:35:22.434Z,54.00
2016-08-07T05:36:28.647Z,54.40
2016-08-07T05:38:28.191Z,is
2016-08-07T05:39:19.890Z,54.00
2016-08-07T05:40:27.610Z,54.00
2016-08-07T05:41:23.566Z,54.00
2016-08-07T05:42:24.822Z,54.00
2016-08-07T05:43:27.933Z,54.00
2016-08-07T05:44:27.809Z,53.90
2016-08-07T05:45:32.398Z,54.00
2016-08-07T05:46:29.239Z,54.00
2016-08-07T05:47:27.339Z,is
2016-08-07T05:48:33.789Z,54.00
2016-08-07T05:49:23.386Z,53.90
2016-08-07T05:50:27.317Z,53.90
2016-08-07T05:51:28.138Z,53.90
2016-08-07T05:53:29.426Z,54.00
2016-08-07T05:54:31.416Z,53.90
2016-08-07T05:55:28.481Z,53.90
2016-08-07T05:56:28.286Z,53.90
2016-08-07T05:57:29.127Z,53.90
2016-08-07T05:58:25.498Z,53.90
2016-08-07T05:59:22.797Z,53.90
2016-08-07T06:00:21.518Z,is
2016-08-07T06:01:21.447Z,54.00
2016-08-07T06:02:27.997Z,54.00
2016-08-07T06:03:15.097Z,53.90
2016-08-07T06:04:26.384Z,53.90
2016-08-07T06:05:30.816Z,53.90
2016-08-07T06:06:21.617Z,53.90
2016-08-07T06:07:27.037Z,53.90
2016-08-07T06:08:22.852Z,54.00
2016-08-07T06:09:26.382Z,53.90
2016-08-07T06:10:27.983Z,53.90
2016-08-07T06:11:15.506Z,54.00
2016-08-07T06:12:28.075Z,54.00
2016-08-07T06:13:27.213Z,53.90
2016-08-07T06:14:26.887Z,53.90
2016-08-07T06:15:15.414Z,is
2016-08-07T06:16:22.307Z,54.00
2016-08-07T06:17:27.855Z,53.00
2016-08-07T06:18:31.853Z,53.90
2016-08-07T06:19:36.858Z,53.90
2016-08-07T06:20:25.966Z,54.00
2016-08-07T06:21:22.468Z,53.90
2016-08-07T06:23:22.103Z,54.00
2016-08-07T06:24:28.947Z,53.90
2016-08-07T06:25:23.346Z,54.00
2016-08-07T06:26:24.728Z,54.20
2016-08-07T06:27:28.202Z,53.90
2016-08-07T06:28:33.336Z,54.00
2016-08-07T06:29:28.524Z,53.90
2016-08-07T06:30:27.739Z,53.90
2016-08-07T06:31:22.965Z,54.00
2016-08-07T06:32:26.582Z,54.00
2016-08-07T06:33:26.642Z,54.00
2016-08-07T06:34:23.046Z,53.90
2016-08-07T06:35:28.145Z,53.90
2016-08-07T06:36:26.397Z,54.00
2016-08-07T06:38:25.746Z,53.90
2016-08-07T06:39:25.118Z,53.90
2016-08-07T06:40:28.659Z,53.90
2016-08-07T06:41:27.643Z,54.00
2016-08-07T06:42:30.883Z,54.00
2016-08-07T06:43:13.507Z,53.90
2016-08-07T06:44:22.490Z,is
2016-08-07T06:45:14.831Z,54.00
2016-08-07T06:46:28.412Z,53.80
2016-08-07T06:47:29.389Z,53.80
2016-08-07T06:48:26.508Z,53.90
2016-08-07T06:49:28.015Z,53.90
2016-08-07T06:50:23.471Z,53.90
2016-08-07T06:51:27.577Z,53.80
2016-08-07T06:53:29.228Z,53.80
2016-08-07T06:54:22.922Z,53.90
2016-08-07T06:55:21.208Z,54.00
2016-08-07T06:56:22.607Z,53.90
2016-08-07T06:57:20.474Z,53.90
2016-08-07T06:58:21.678Z,53.90
2016-08-07T06:59:26.685Z,53.90
2016-08-07T07:00:26.771Z,53.90
2016-08-07T07:01:28.360Z,53.90
2016-08-07T07:02:21.996Z,53.90
2016-08-07T07:03:20.010Z,53.90
2016-08-07T07:04:25.218Z,53.90
2016-08-07T07:05:32.676Z,54.00
2016-08-07T07:06:21.444Z,is
2016-08-07T07:08:20.136Z,54.00
2016-08-07T07:09:15.545Z,54.00
2016-08-07T07:10:16.065Z,54.00
2016-08-07T07:11:27.736Z,54.00
2016-08-07T07:12:29.448Z,is
2016-08-07T07:13:25.018Z,54.30
2016-08-07T07:14:13.784Z,is
2016-08-07T07:15:14.639Z,55.00
2016-08-07T07:16:20.351Z,55.00
2016-08-07T07:17:33.177Z,55.00
2016-08-07T07:18:26.325Z,55.30
2016-08-07T07:19:12.493Z,is
2016-08-07T07:20:24.325Z,55.00
2016-08-07T07:21:37.407Z,55.50
2016-08-07T07:22:23.244Z,55.50
2016-08-07T07:23:21.268Z,55.70
2016-08-07T07:24:28.115Z,55.70
2016-08-07T07:25:37.866Z,55.80
2016-08-07T07:26:22.791Z,55.80
2016-08-07T07:27:23.242Z,55.90
2016-08-07T07:28:19.410Z,55.90
2016-08-07T07:29:27.537Z,56.00
2016-08-07T07:30:18.700Z,55.80
2016-08-07T07:31:34.157Z,56.00
2016-08-07T07:32:20.310Z,55.80
2016-08-07T07:33:15.805Z,55.90
2016-08-07T07:34:16.385Z,55.90
2016-08-07T07:35:26.456Z,55.80
2016-08-07T07:36:25.079Z,55.60
2016-08-07T07:37:14.750Z,55.70
2016-08-07T07:38:25.930Z,55.50
2016-08-07T07:39:13.160Z,55.70
2016-08-07T07:40:27.387Z,55.60
2016-08-07T07:41:35.601Z,55.60
2016-08-07T07:42:21.781Z,55.60
2016-08-07T07:43:20.045Z,55.60
2016-08-07T07:44:26.485Z,56.20
2016-08-07T07:45:24.782Z,55.40
2016-08-07T07:46:24.385Z,55.40
2016-08-07T07:47:25.197Z,55.30
2016-08-07T08:02:20.771Z,54.90
2016-08-07T08:03:28.905Z,54.90
2016-08-07T08:04:14.647Z,54.80
2016-08-07T08:05:20.588Z,54.90
2016-08-07T08:06:18.651Z,54.90
2016-08-07T08:07:15.754Z,54.90
2016-08-07T08:08:12.795Z,54.70
2016-08-07T08:09:12.932Z,54.50
2016-08-07T08:10:11.603Z,54.80
2016-08-07T08:11:17.191Z,is
2016-08-07T08:12:16.299Z,is
2016-08-07T08:13:13.487Z,54.70
2016-08-07T08:14:28.368Z,54.70
2016-08-07T08:15:14.233Z,54.70
2016-08-07T08:16:28.915Z,54.70
2016-08-07T08:17:14.658Z,54.60
2016-08-07T08:18:22.755Z,54.70
2016-08-07T08:19:22.987Z,is
2016-08-07T08:20:22.632Z,54.70
2016-08-07T08:21:22.372Z,is
2016-08-07T08:22:16.971Z,54.80
2016-08-07T08:23:22.285Z,54.90
2016-08-07T08:24:23.307Z,54.80
2016-08-07T08:25:21.350Z,54.80
2016-08-07T08:26:17.095Z,54.80
2016-08-07T08:27:28.208Z,54.80
2016-08-07T08:28:12.928Z,54.70
2016-08-07T08:29:14.032Z,54.70
2016-08-07T08:30:13.061Z,54.70
2016-08-07T08:31:11.850Z,54.80
2016-08-07T08:32:17.389Z,54.80
2016-08-07T08:33:14.936Z,55.00
2016-08-07T08:34:22.448Z,54.90
2016-08-07T08:35:21.397Z,54.90
2016-08-07T08:36:13.511Z,55.10
2016-08-07T08:37:16.600Z,55.00
2016-08-07T08:38:18.976Z,55.10
2016-08-07T08:39:20.441Z,55.20
2016-08-07T08:40:18.184Z,55.20
2016-08-07T08:41:22.851Z,55.30
2016-08-07T08:42:13.164Z,is
2016-08-07T08:43:16.367Z,55.20
2016-08-07T08:44:26.974Z,55.20
2016-08-07T08:45:20.966Z,55.30
2016-08-07T08:46:14.876Z,55.20
2016-08-07T08:47:11.970Z,is
2016-08-07T08:48:16.261Z,55.10
2016-08-07T08:49:15.295Z,55.20
2016-08-07T08:50:13.077Z,55.20
2016-08-07T08:51:16.346Z,55.20
2016-08-07T08:52:28.261Z,55.10
2016-08-07T08:53:15.096Z,55.20
2016-08-07T08:54:10.915Z,is
2016-08-07T08:55:26.714Z,55.00
2016-08-07T08:56:13.950Z,55.20
2016-08-07T08:57:22.227Z,55.20
2016-08-07T08:58:23.064Z,55.10
2016-08-07T08:59:18.853Z,55.10
2016-08-07T09:00:15.312Z,55.10
2016-08-07T09:01:15.138Z,55.20
2016-08-07T09:02:18.442Z,is
2016-08-07T09:03:12.649Z,55.00
2016-08-07T09:04:16.930Z,55.00
2016-08-07T09:05:17.043Z,54.90
2016-08-07T09:06:22.505Z,54.80
2016-08-07T09:07:19.524Z,54.90
2016-08-07T09:08:14.785Z,54.90
2016-08-07T09:09:18.235Z,54.70
2016-08-07T09:10:22.809Z,54.70
2016-08-07T09:11:14.976Z,54.80
2016-08-07T09:12:38.015Z,54.70
2016-08-07T09:13:12.857Z,54.80
2016-08-07T09:14:17.106Z,54.80
2016-08-07T09:15:16.307Z,54.70
2016-08-07T09:16:21.780Z,54.80
2016-08-07T09:17:22.825Z,54.80
2016-08-07T09:18:13.417Z,is
2016-08-07T09:19:22.164Z,54.70
2016-08-07T09:20:09.914Z,is
2016-08-07T09:21:22.260Z,is
2016-08-07T09:22:27.068Z,54.70
2016-08-07T09:24:22.261Z,54.70
2016-08-07T09:25:18.919Z,is
2016-08-07T09:26:19.222Z,54.60
2016-08-07T09:27:21.089Z,54.60
2016-08-07T09:28:15.884Z,54.50
2016-08-07T09:29:14.618Z,54.60
2016-08-07T09:30:22.067Z,54.00
2016-08-07T09:31:16.415Z,54.70
2016-08-07T09:32:18.022Z,54.50
2016-08-07T09:33:21.875Z,54.50
2016-08-07T09:34:15.246Z,54.50
2016-08-07T09:35:16.818Z,54.50
2016-08-07T09:36:15.705Z,54.50
2016-08-07T09:37:17.056Z,54.60
2016-08-07T09:38:20.139Z,54.40
2016-08-07T09:39:15.686Z,54.50
2016-08-07T09:40:27.126Z,54.40
2016-08-07T09:41:14.413Z,54.40
2016-08-07T09:42:13.902Z,54.50
2016-08-07T09:43:15.491Z,54.40
2016-08-07T09:44:16.202Z,is
2016-08-07T09:45:16.988Z,54.40
2016-08-07T09:46:19.812Z,54.40
2016-08-07T09:47:22.587Z,54.40
2016-08-07T09:48:12.755Z,54.40
2016-08-07T09:49:17.559Z,54.40
2016-08-07T09:50:22.004Z,54.40
2016-08-07T09:51:17.074Z,54.50
2016-08-07T09:52:22.787Z,54.30
2016-08-07T09:53:14.016Z,54.40
2016-08-07T09:54:15.996Z,54.40
2016-08-07T09:55:16.789Z,is
2016-08-07T09:56:13.821Z,54.40
2016-08-07T09:57:18.040Z,54.40
2016-08-07T09:58:14.047Z,54.40
2016-08-07T09:59:20.041Z,53.80
2016-08-07T10:00:16.434Z,54.30
2016-08-07T10:01:16.408Z,54.30
2016-08-07T10:02:15.172Z,54.30
2016-08-07T10:03:14.689Z,54.30
2016-08-07T10:04:13.216Z,54.30
2016-08-07T10:05:15.892Z,54.40
2016-08-07T10:06:19.060Z,54.30
2016-08-07T10:07:14.847Z,54.30
2016-08-07T10:08:17.296Z,53.50
2016-08-07T10:09:15.313Z,54.40
2016-08-07T10:10:16.929Z,54.20
2016-08-07T10:11:16.204Z,54.20
2016-08-07T10:12:14.638Z,52.00
2016-08-07T10:13:17.207Z,51.10
2016-08-07T10:14:23.406Z,50.50
2016-08-07T10:15:17.139Z,50.30
2016-08-07T10:16:12.443Z,is
2016-08-07T10:17:29.035Z,50.40
2016-08-07T10:18:19.193Z,49.80
2016-08-07T10:19:16.057Z,49.60
2016-08-07T10:20:17.518Z,49.70
2016-08-07T10:21:22.205Z,50.20
2016-08-07T10:22:18.362Z,50.20
2016-08-07T10:23:14.368Z,49.60
2016-08-07T10:24:26.689Z,49.70
2016-08-07T10:25:12.764Z,is
2016-08-07T10:26:15.454Z,49.10
2016-08-07T10:27:20.988Z,49.00
2016-08-07T10:28:20.143Z,49.10
2016-08-07T10:29:23.121Z,49.00
2016-08-07T10:30:22.180Z,48.50
2016-08-07T10:31:17.294Z,is
2016-08-07T10:32:28.752Z,48.30
2016-08-07T10:33:21.038Z,48.10
2016-08-07T10:34:22.945Z,48.10
2016-08-07T10:35:28.606Z,48.50
2016-08-07T10:36:17.845Z,48.60
2016-08-07T10:37:25.066Z,48.50
2016-08-07T10:39:15.081Z,48.10
2016-08-07T10:40:16.676Z,48.70
2016-08-07T10:41:18.620Z,48.30
2016-08-07T10:42:16.276Z,is
2016-08-07T10:43:26.010Z,48.60
2016-08-07T10:44:14.116Z,48.50
2016-08-07T10:45:13.644Z,48.50
2016-08-07T10:46:23.355Z,48.40
2016-08-07T10:47:27.859Z,47.70
2016-08-07T10:48:19.297Z,47.00
2016-08-07T10:49:21.598Z,47.50
2016-08-07T10:50:20.142Z,47.00
2016-08-07T10:51:17.547Z,47.50
2016-08-07T10:52:21.199Z,47.00
2016-08-07T10:53:17.913Z,47.20
2016-08-07T10:54:20.284Z,47.80
2016-08-07T10:55:14.817Z,47.00
2016-08-07T10:56:15.720Z,47.00
2016-08-07T10:57:19.946Z,47.00
2016-08-07T10:58:20.910Z,46.90
2016-08-07T10:59:18.447Z,47.40
2016-08-07T11:00:21.672Z,47.50
2016-08-07T11:01:14.879Z,47.60
2016-08-07T11:02:26.986Z,48.00
2016-08-07T11:03:12.634Z,48.10
2016-08-07T11:04:22.506Z,48.40
2016-08-07T11:05:23.590Z,49.20
2016-08-07T11:06:21.226Z,48.70
2016-08-07T11:07:21.212Z,48.10
2016-08-07T11:08:15.625Z,48.50
2016-08-07T11:09:12.655Z,48.80
2016-08-07T11:10:12.350Z,48.50
2016-08-07T11:11:14.080Z,48.70
2016-08-07T11:12:13.017Z,48.50
2016-08-07T11:13:13.638Z,48.40
2016-08-07T11:14:14.118Z,47.90
2016-08-07T11:15:14.158Z,47.80
2016-08-07T11:16:13.418Z,46.90
2016-08-07T11:17:16.923Z,46.70
2016-08-07T11:18:17.044Z,46.70
2016-08-07T11:19:17.893Z,47.00
2016-08-07T11:20:17.418Z,47.40
2016-08-07T11:21:18.668Z,47.70
2016-08-07T11:22:13.696Z,48.00
2016-08-07T11:23:15.528Z,48.00
2016-08-07T11:24:16.279Z,48.00
2016-08-07T11:25:13.361Z,47.30
2016-08-07T11:26:15.826Z,47.30
2016-08-07T11:27:15.765Z,47.10
2016-08-07T11:28:12.266Z,46.80
2016-08-07T11:29:13.170Z,46.90
2016-08-07T11:30:12.815Z,46.70
2016-08-07T11:31:13.283Z,46.90
2016-08-07T11:32:12.617Z,46.80
2016-08-07T11:33:11.095Z,is
2016-08-07T11:34:14.268Z,46.80
2016-08-07T11:35:12.208Z,46.70
2016-08-07T11:36:18.269Z,46.80
2016-08-07T11:37:13.726Z,46.80
2016-08-07T11:38:12.769Z,47.20
2016-08-07T11:39:12.263Z,47.60
2016-08-07T11:40:12.010Z,47.80
2016-08-07T11:41:12.698Z,48.10
2016-08-07T11:42:15.004Z,48.20
2016-08-07T11:43:11.796Z,is
2016-08-07T11:44:13.619Z,48.30
2016-08-07T11:45:16.314Z,48.50
2016-08-07T11:46:15.665Z,48.80
2016-08-07T11:47:15.327Z,48.70
2016-08-07T11:48:17.168Z,48.70
2016-08-07T11:49:22.152Z,48.90
2016-08-07T11:50:16.259Z,48.60
2016-08-07T11:51:14.007Z,48.80
2016-08-07T11:52:15.492Z,48.90
2016-08-07T11:53:14.048Z,48.80
2016-08-07T11:54:13.645Z,48.90
2016-08-07T11:55:14.025Z,49.00
2016-08-07T11:56:12.828Z,49.20
2016-08-07T11:57:13.491Z,49.10
2016-08-07T11:58:12.111Z,49.30
2016-08-07T11:59:11.489Z,49.20
2016-08-07T12:00:19.658Z,49.10
2016-08-07T12:01:13.631Z,49.20
2016-08-07T12:02:15.208Z,49.20
2016-08-07T12:03:14.068Z,49.00
2016-08-07T12:04:13.081Z,49.20
2016-08-07T12:05:12.857Z,is
2016-08-07T12:06:13.244Z,49.20
2016-08-07T12:07:12.131Z,49.20
2016-08-07T12:08:14.114Z,49.30
2016-08-07T12:09:12.196Z,49.20
2016-08-07T12:10:12.901Z,49.10
2016-08-07T12:11:13.957Z,48.80
2016-08-07T12:12:11.555Z,47.30
2016-08-07T12:13:10.970Z,is
2016-08-07T12:14:11.740Z,47.40
2016-08-07T12:15:12.180Z,48.20
2016-08-07T12:16:11.265Z,is
2016-08-07T12:17:12.440Z,48.10
2016-08-07T12:18:13.928Z,47.90
2016-08-07T12:19:12.657Z,47.90
2016-08-07T12:20:12.831Z,47.50
2016-08-07T12:21:18.486Z,47.30
2016-08-07T12:22:17.276Z,47.50
2016-08-07T12:23:13.169Z,46.40
2016-08-07T12:24:12.224Z,47.50
2016-08-07T12:25:15.314Z,47.30
2016-08-07T12:26:15.706Z,47.30
2016-08-07T12:27:14.298Z,47.40
2016-08-07T12:28:14.018Z,47.60
2016-08-07T12:29:17.972Z,46.30
2016-08-07T12:30:12.994Z,47.00
2016-08-07T12:31:13.163Z,46.80
2016-08-07T12:32:11.927Z,45.80
2016-08-07T12:33:11.723Z,46.20
2016-08-07T12:34:15.648Z,46.10
2016-08-07T12:35:12.569Z,46.60
2016-08-07T12:36:13.688Z,46.40
2016-08-07T12:37:12.621Z,46.60
2016-08-07T12:38:13.896Z,47.20
2016-08-07T12:39:13.384Z,47.00
2016-08-07T12:40:14.188Z,46.40
2016-08-07T12:41:12.724Z,46.50
2016-08-07T12:42:17.569Z,46.40
2016-08-07T12:43:13.384Z,46.40
2016-08-07T12:44:13.755Z,46.50
2016-08-07T12:45:17.029Z,46.50
2016-08-07T12:46:16.210Z,46.40
2016-08-07T12:47:10.538Z,is
2016-08-07T12:48:13.589Z,45.70
2016-08-07T12:49:16.087Z,47.10
2016-08-07T12:50:11.966Z,47.10
2016-08-07T12:51:15.654Z,47.10
2016-08-07T12:52:16.295Z,47.60
2016-08-07T12:53:14.514Z,46.70
2016-08-07T12:55:19.321Z,47.00
2016-08-07T12:56:13.211Z,46.30
2016-08-07T12:57:16.971Z,47.40
2016-08-07T12:58:12.155Z,46.30
2016-08-07T12:59:15.716Z,45.90
2016-08-07T13:00:15.703Z,46.20
2016-08-07T13:01:12.919Z,45.60
2016-08-07T13:02:13.091Z,46.00
2016-08-07T13:03:12.143Z,is
2016-08-07T13:04:14.696Z,45.60
2016-08-07T13:05:13.931Z,45.30
2016-08-07T13:06:14.822Z,45.90
2016-08-07T13:07:17.335Z,45.90
2016-08-07T13:08:15.202Z,45.70
2016-08-07T13:10:13.042Z,46.00
2016-08-07T13:11:12.756Z,46.20
2016-08-07T13:12:13.465Z,46.00
2016-08-07T13:13:15.163Z,46.40
2016-08-07T13:14:10.201Z,is
2016-08-07T13:15:14.930Z,46.60
2016-08-07T13:16:13.199Z,45.90
2016-08-07T13:17:12.901Z,46.40
2016-08-07T13:18:13.551Z,46.10
2016-08-07T13:19:12.725Z,46.30
2016-08-07T13:20:15.372Z,45.90
2016-08-07T13:21:15.800Z,is
2016-08-07T13:22:14.352Z,46.20
2016-08-07T13:23:14.319Z,46.40
2016-08-07T13:24:16.272Z,46.40
2016-08-07T13:25:11.492Z,is
2016-08-07T13:26:18.707Z,46.50